Time;durP1;ratioP1;P1;durP2;ratioP2;P2;SDS_P1;SDS_P2;PMS_P1;PMS_P2;Temp;Humidity;BMP_temperature;BMP_pressure;BME280_temperature;BME280_humidity;BME280_pressure;Samples;Min_cycle;Max_cycle;Signal;HPM_P1;HPM_P2
2021/03/16 00:01:09;;;;;;;10.65;6.55;;;;;;;0.17;100.00;100417.06;2571017;55;20121;-74
2021/03/16 00:03:54;;;;;;;10.95;6.82;;;;;;;0.15;100.00;100418.00;2575534;55;20647;-74
2021/03/16 00:06:29;;;;;;;13.43;7.15;;;;;;;0.14;100.00;100427.63;2570364;55;20132;-74
2021/03/16 00:08:57;;;;;;;11.63;6.50;;;;;;;0.11;100.00;100428.62;2569964;55;20133;-74
2021/03/16 00:11:31;;;;;;;15.30;7.43;;;;;;;0.19;100.00;100440.59;2576386;55;20105;-74
2021/03/16 00:13:59;;;;;;;11.27;6.85;;;;;;;0.11;100.00;100439.12;2575449;55;20182;-75
2021/03/16 00:16:32;;;;;;;11.32;7.10;;;;;;;0.15;100.00;100444.25;2570491;55;20742;-74
2021/03/16 00:19:11;;;;;;;13.93;8.85;;;;;;;0.13;100.00;100439.03;2570798;55;20561;-74
2021/03/16 00:21:42;;;;;;;13.32;7.97;;;;;;;0.13;100.00;100444.28;2569027;55;20123;-74
2021/03/16 00:24:13;;;;;;;14.87;6.93;;;;;;;0.17;100.00;100452.91;2569047;55;20168;-74
2021/03/16 00:26:42;;;;;;;15.80;7.78;;;;;;;0.11;100.00;100454.88;2573055;55;20670;-74
2021/03/16 00:29:13;;;;;;;;;;;;;;;0.26;100.00;100458.69;2569470;55;20121;-75
2021/03/16 00:31:42;;;;;;;14.20;8.38;;;;;;;0.13;100.00;100463.53;2568566;55;19997;-74
2021/03/16 00:34:11;;;;;;;16.20;8.25;;;;;;;0.09;100.00;100467.16;2570424;55;20121;-74
2021/03/16 00:36:41;;;;;;;14.13;8.27;;;;;;;0.07;100.00;100474.22;2571777;55;20528;-74
2021/03/16 00:39:10;;;;;;;12.93;8.02;;;;;;;0.09;100.00;100474.19;2575310;55;20109;-74
2021/03/16 00:41:40;;;;;;;17.45;9.35;;;;;;;0.09;100.00;100472.41;2574942;55;20419;-74
2021/03/16 00:44:14;;;;;;;15.52;8.98;;;;;;;0.09;100.00;100475.03;2575111;55;20136;-74
2021/03/16 00:46:45;;;;;;;14.38;8.70;;;;;;;0.09;100.00;100482.91;2573054;55;20128;-74
2021/03/16 00:49:15;;;;;;;11.40;7.95;;;;;;;0.09;100.00;100480.28;2576223;55;20121;-74
2021/03/16 00:51:46;;;;;;;16.73;8.68;;;;;;;0.09;100.00;100477.66;2572628;55;20637;-74
2021/03/16 00:54:19;;;;;;;12.65;7.82;;;;;;;0.09;100.00;100477.66;2572764;55;20129;-74
2021/03/16 00:56:47;;;;;;;12.80;7.57;;;;;;;0.14;100.00;100487.97;2578001;55;20129;-74
2021/03/16 00:59:23;;;;;;;11.60;7.05;;;;;;;0.15;100.00;100486.22;2572700;55;20113;-75
2021/03/16 01:01:53;;;;;;;12.13;8.38;;;;;;;0.11;100.00;100486.34;2572588;55;20129;-74
2021/03/16 01:04:22;;;;;;;10.77;7.18;;;;;;;0.08;100.00;100485.59;2577889;55;20117;-74
2021/03/16 01:06:52;;;;;;;9.38;6.43;;;;;;;0.13;100.00;100497.63;2572641;55;20102;-75
2021/03/16 01:09:21;;;;;;;10.30;7.05;;;;;;;0.13;100.00;100505.50;2577831;55;20109;-74
2021/03/16 01:11:49;;;;;;;8.70;5.53;;;;;;;0.11;100.00;100502.09;2577659;55;20129;-74
2021/03/16 01:14:18;;;;;;;8.80;6.50;;;;;;;0.15;100.00;100500.22;2573077;55;20125;-74
2021/03/16 01:16:46;;;;;;;7.30;5.30;;;;;;;0.15;100.00;100509.84;2578059;55;20121;-74
2021/03/16 01:19:18;;;;;;;9.63;6.07;;;;;;;0.11;100.00;100502.09;2572054;55;20677;-74
2021/03/16 01:21:46;;;;;;;9.55;6.15;;;;;;;0.10;100.00;100507.38;2578011;55;20097;-75
2021/03/16 01:24:14;;;;;;;7.72;5.60;;;;;;;0.11;100.00;100517.84;2573381;55;20131;-74
2021/03/16 01:26:44;;;;;;;6.50;5.03;;;;;;;0.11;100.00;100517.84;2577940;55;20133;-74
2021/03/16 01:29:15;;;;;;;7.10;5.00;;;;;;;0.12;100.00;100518.69;2573009;55;20184;-74
2021/03/16 01:31:45;;;;;;;5.93;4.28;;;;;;;0.17;100.00;100526.38;2577925;55;20139;-74
2021/03/16 01:34:13;;;;;;;7.28;5.15;;;;;;;0.12;100.00;100524.78;2572472;55;20680;-75
2021/03/16 01:36:41;;;;;;;6.22;4.70;;;;;;;0.17;100.00;100521.13;2578517;55;20172;-74
2021/03/16 01:39:11;;;;;;;6.45;4.53;;;;;;;0.15;100.00;100525.59;2577867;55;20130;-74
2021/03/16 01:41:39;;;;;;;5.25;4.12;;;;;;;0.21;100.00;100533.25;2578015;55;20585;-74
2021/03/16 01:44:07;;;;;;;6.85;4.80;;;;;;;0.19;100.00;100535.94;2577477;55;20618;-75
2021/03/16 01:46:39;;;;;;;6.03;4.82;;;;;;;0.20;100.00;100544.63;2578221;55;20133;-74
2021/03/16 01:49:11;;;;;;;6.47;4.95;;;;;;;0.15;100.00;100543.97;2578778;55;20124;-75
2021/03/16 01:51:42;;;;;;;7.47;5.10;;;;;;;0.11;100.00;100551.94;2572566;55;20143;-75
2021/03/16 01:54:12;;;;;;;6.82;4.62;;;;;;;0.16;100.00;100550.91;2572536;55;20120;-75
2021/03/16 01:56:44;;;;;;;8.00;5.53;;;;;;;0.19;100.00;100548.19;2577572;55;20118;-74
2021/03/16 01:59:35;;;;;;;7.60;5.22;;;;;;;0.17;100.00;100552.63;2573377;55;20147;-74
2021/03/16 02:02:26;;;;;;;6.37;4.37;;;;;;;0.15;100.00;100550.06;2574301;55;20136;-75
2021/03/16 02:05:19;;;;;;;6.10;3.95;;;;;;;0.22;100.00;100567.31;2578509;55;20612;-75
2021/03/16 02:08:15;;;;;;;6.53;4.50;;;;;;;0.20;100.00;100570.88;2574596;55;20129;-75
2021/03/16 02:11:12;;;;;;;5.97;4.82;;;;;;;0.20;100.00;100576.13;2578737;55;20116;-75
2021/03/16 02:14:03;;;;;;;5.47;4.03;;;;;;;0.21;100.00;100581.34;2578572;55;20133;-74
2021/03/16 02:16:58;;;;;;;6.25;3.95;;;;;;;0.17;100.00;100576.25;2579130;55;20194;-75
2021/03/16 02:20:06;;;;;;;3.67;2.78;;;;;;;0.22;100.00;100579.59;2579252;55;20135;-75
2021/03/16 02:22:56;;;;;;;3.75;2.85;;;;;;;0.08;100.00;100575.66;2573775;55;20630;-75
2021/03/16 02:26:01;;;;;;;3.28;2.47;;;;;;;0.10;100.00;100583.47;2572926;55;20113;-75
2021/03/16 02:29:15;;;;;;;4.30;2.80;;;;;;;0.11;100.00;100586.06;2578415;55;20132;-75
2021/03/16 02:32:06;;;;;;;4.87;3.17;;;;;;;0.05;100.00;100599.37;2573398;55;20131;-75
2021/03/16 02:35:02;;;;;;;4.47;3.42;;;;;;;-0.01;100.00;100589.06;2573089;55;20547;-75
2021/03/16 02:37:52;;;;;;;3.95;2.92;;;;;;;-0.03;100.00;100586.50;2578491;55;20686;-74
2021/03/16 02:40:42;;;;;;;4.45;3.33;;;;;;;-0.05;100.00;100598.81;2573874;55;20532;-75
2021/03/16 02:43:32;;;;;;;3.12;2.60;;;;;;;-0.06;100.00;100598.88;2574035;55;20139;-75
2021/03/16 02:46:21;;;;;;;4.07;2.65;;;;;;;-0.05;100.00;100595.34;2578473;55;20121;-75
2021/03/16 02:49:13;;;;;;;3.85;3.05;;;;;;;-0.11;100.00;100603.37;2572968;55;20128;-75
2021/03/16 02:52:06;;;;;;;7.75;3.83;;;;;;;-0.11;100.00;100599.03;2578545;55;20125;-75
2021/03/16 02:54:54;;;;;;;5.40;3.28;;;;;;;-0.11;100.00;100603.37;2572617;55;20137;-75
2021/03/16 02:57:47;;;;;;;4.22;3.10;;;;;;;-0.10;100.00;100607.72;2574451;55;20169;-75
2021/03/16 03:00:33;;;;;;;3.85;2.58;;;;;;;-0.09;100.00;100615.56;2573201;55;20499;-75
2021/03/16 03:03:25;;;;;;;4.78;2.62;;;;;;;-0.11;100.00;100614.75;2573600;55;20363;-75
2021/03/16 03:06:15;;;;;;;4.20;2.90;;;;;;;-0.15;100.00;100637.59;2573098;55;20654;-75
2021/03/16 03:09:07;;;;;;;3.42;2.78;;;;;;;-0.15;100.00;100632.34;2573197;55;20131;-75
2021/03/16 03:11:56;;;;;;;5.93;3.47;;;;;;;-0.10;100.00;100636.56;2578518;55;20495;-75
2021/03/16 03:14:44;;;;;;;7.22;3.55;;;;;;;-0.13;100.00;100644.56;2573102;55;20105;-75
2021/03/16 03:17:32;;;;;;;3.90;3.17;;;;;;;-0.10;100.00;100644.44;2573272;55;20640;-75
2021/03/16 03:20:29;;;;;;;4.93;4.10;;;;;;;-0.08;100.00;100653.16;2573262;55;20136;-75
2021/03/16 03:23:24;;;;;;;5.12;3.42;;;;;;;-0.07;100.00;100652.25;2578974;55;20143;-75
2021/03/16 03:26:17;;;;;;;5.80;3.83;;;;;;;-0.09;100.00;100651.44;2573350;55;20547;-75
2021/03/16 03:29:10;;;;;;;6.25;3.70;;;;;;;-0.05;100.00;100653.03;2578908;55;20129;-75
2021/03/16 03:31:58;;;;;;;4.75;3.55;;;;;;;-0.05;100.00;100659.16;2573517;55;20121;-75
2021/03/16 03:34:48;;;;;;;4.12;2.90;;;;;;;-0.06;100.00;100661.81;2573417;55;20132;-75
2021/03/16 03:37:41;;;;;;;4.72;2.80;;;;;;;-0.07;100.00;100665.34;2573114;55;20171;-76
2021/03/16 03:40:32;;;;;;;9.13;3.50;;;;;;;-0.03;100.00;100665.22;2573077;55;20144;-75
2021/03/16 03:43:26;;;;;;;2.92;2.35;;;;;;;0.05;100.00;100674.59;2572898;55;20133;-75
2021/03/16 03:46:21;;;;;;;5.60;3.00;;;;;;;0.01;100.00;100680.84;2578281;55;20118;-75
2021/03/16 03:49:10;;;;;;;4.25;2.80;;;;;;;-0.04;100.00;100681.00;2577982;55;20790;-75
2021/03/16 03:52:01;;;;;;;3.15;2.30;;;;;;;0.01;100.00;100689.59;2578115;55;20543;-75
2021/03/16 03:54:50;;;;;;;4.60;2.22;;;;;;;0.02;100.00;100688.69;2573814;55;20503;-75
2021/03/16 03:57:41;;;;;;;3.67;2.33;;;;;;;0.01;100.00;100684.34;2572476;55;20138;-75
2021/03/16 04:00:32;;;;;;;3.70;2.30;;;;;;;-0.04;100.00;100687.09;2572466;55;20143;-75
2021/03/16 04:03:21;;;;;;;1.62;1.48;;;;;;;0.05;100.00;100687.69;2577874;55;20132;-76
2021/03/16 04:06:10;;;;;;;4.37;2.45;;;;;;;0.01;100.00;100696.59;2577761;55;20106;-75
2021/03/16 04:08:59;;;;;;;3.90;2.78;;;;;;;-0.02;100.00;100700.16;2572785;55;20121;-75
2021/03/16 04:11:46;;;;;;;4.72;2.90;;;;;;;-0.02;100.00;100710.66;2572114;55;20147;-76
2021/03/16 04:14:35;;;;;;;3.47;2.55;;;;;;;0.02;100.00;100717.53;2572374;55;20742;-75
2021/03/16 04:17:25;;;;;;;3.75;2.65;;;;;;;-0.03;100.00;100727.28;2577773;55;20127;-75
2021/03/16 04:20:16;;;;;;;3.20;2.25;;;;;;;-0.05;100.00;100723.88;2571842;55;20125;-75
2021/03/16 04:23:04;;;;;;;3.75;2.83;;;;;;;-0.06;100.00;100720.38;2578661;55;20117;-75
2021/03/16 04:25:52;;;;;;;4.07;3.12;;;;;;;-0.08;100.00;100718.72;2578943;55;20125;-75
2021/03/16 04:28:43;;;;;;;5.78;3.60;;;;;;;-0.04;100.00;100728.22;2578602;55;20129;-76
2021/03/16 04:31:30;;;;;;;5.82;3.60;;;;;;;-0.04;100.00;100725.59;2573458;55;20624;-75
2021/03/16 04:34:16;;;;;;;5.43;4.05;;;;;;;-0.08;100.00;100731.84;2573239;55;20639;-76
2021/03/16 04:37:03;;;;;;;4.20;3.37;;;;;;;-0.06;100.00;100745.75;2573134;55;20109;-76
2021/03/16 04:39:50;;;;;;;6.57;4.43;;;;;;;-0.08;100.00;100737.94;2578134;55;20117;-75
2021/03/16 04:42:36;;;;;;;5.28;3.70;;;;;;;-0.07;100.00;100742.28;2573585;55;20556;-75
2021/03/16 04:45:26;;;;;;;5.97;4.12;;;;;;;-0.02;100.00;100740.38;2578139;55;20615;-76
2021/03/16 04:48:14;;;;;;;6.90;5.10;;;;;;;-0.04;100.00;100743.94;2578573;55;20705;-76
2021/03/16 04:51:03;;;;;;;4.65;3.85;;;;;;;-0.04;100.00;100749.19;2577880;55;20170;-76
2021/03/16 04:53:55;;;;;;;6.78;4.57;;;;;;;-0.07;100.00;100760.62;2573165;55;20765;-76
2021/03/16 04:56:41;;;;;;;8.30;4.55;;;;;;;-0.07;100.00;100760.62;2577957;55;20113;-75
2021/03/16 04:59:29;;;;;;;5.55;4.03;;;;;;;-0.06;100.00;100766.75;2573575;55;20143;-76
2021/03/16 05:02:20;;;;;;;6.12;4.07;;;;;;;-0.03;100.00;100778.00;2570062;55;20110;-76
2021/03/16 05:05:08;;;;;;;7.87;4.40;;;;;;;-0.01;100.00;100764.84;2567402;55;20105;-76
2021/03/16 05:08:00;;;;;;;7.75;4.97;;;;;;;0.01;100.00;100776.16;2573073;55;20133;-75
2021/03/16 05:10:47;;;;;;;6.03;4.35;;;;;;;0.02;100.00;100770.00;2573257;55;20121;-76
2021/03/16 05:13:34;;;;;;;7.28;4.85;;;;;;;0.02;100.00;100777.88;2576757;55;20116;-76
2021/03/16 05:16:23;;;;;;;7.22;5.35;;;;;;;0.03;100.00;100776.97;2572317;55;20124;-75
2021/03/16 05:19:12;;;;;;;9.70;4.97;;;;;;;0.06;100.00;100784.75;2572346;55;20707;-75
2021/03/16 05:21:59;;;;;;;6.20;4.80;;;;;;;0.08;100.00;100780.28;2577834;55;20128;-76
2021/03/16 05:24:51;;;;;;;7.95;5.78;;;;;;;0.12;100.00;100796.81;2572209;55;20121;-75
2021/03/16 05:27:38;;;;;;;6.95;5.43;;;;;;;0.13;100.00;100796.78;2567517;55;20504;-75
2021/03/16 05:30:26;;;;;;;6.57;4.90;;;;;;;0.15;100.00;100801.12;2574218;55;20113;-76
2021/03/16 05:33:12;;;;;;;6.80;5.12;;;;;;;0.18;100.00;100798.38;2573635;55;20117;-74
2021/03/16 05:36:02;;;;;;;6.20;4.30;;;;;;;0.20;100.00;100804.44;2572363;55;20126;-75
2021/03/16 05:38:48;;;;;;;7.05;5.20;;;;;;;0.18;100.00;100804.50;2571082;55;20110;-74
2021/03/16 05:41:39;;;;;;;6.60;4.53;;;;;;;0.23;100.00;100813.09;2567265;55;20619;-74
2021/03/16 05:44:28;;;;;;;6.20;4.30;;;;;;;0.24;100.00;100806.09;2566994;55;20652;-73
2021/03/16 05:47:14;;;;;;;6.80;5.28;;;;;;;0.22;100.00;100803.50;2565055;55;20145;-73
2021/03/16 05:50:06;;;;;;;5.78;4.50;;;;;;;0.16;100.00;100797.59;2573194;55;20647;-74
2021/03/16 05:53:02;;;;;;;5.90;4.55;;;;;;;0.31;100.00;100825.12;2573746;55;20140;-70
2021/03/16 05:55:52;;;;;;;7.35;5.22;;;;;;;0.30;100.00;100826.03;2572584;55;20498;-75
2021/03/16 05:58:39;;;;;;;6.82;4.93;;;;;;;0.33;100.00;100831.19;2572814;55;20578;-76
2021/03/16 06:01:53;;;;;;;6.32;4.70;;;;;;;0.37;100.00;100831.03;2567020;55;20532;-70
2021/03/16 06:04:47;;;;;;;7.05;5.28;;;;;;;0.40;100.00;100838.84;2573295;55;20117;-70
2021/03/16 06:07:36;;;;;;;6.65;4.90;;;;;;;0.38;100.00;100827.50;2573645;55;20544;-70
2021/03/16 06:10:33;;;;;;;7.32;5.18;;;;;;;0.40;100.00;100838.84;2578513;55;20614;-70
2021/03/16 06:13:22;;;;;;;6.72;4.87;;;;;;;0.41;100.00;100843.19;2578669;55;20133;-70
2021/03/16 06:16:14;;;;;;;8.25;5.25;;;;;;;0.43;100.00;100858.88;2578427;55;20508;-69
2021/03/16 06:19:01;;;;;;;8.00;5.28;;;;;;;0.44;100.00;100855.34;2579174;55;20117;-70
2021/03/16 06:22:05;;;;;;;8.98;6.53;;;;;;;0.43;100.00;100852.78;2579253;55;20130;-70
2021/03/16 06:24:52;;;;;;;11.10;7.68;;;;;;;0.47;100.00;100871.00;2577942;55;20574;-70
2021/03/16 06:27:41;;;;;;;10.38;7.05;;;;;;;0.48;100.00;100870.09;2578977;55;20113;-70
2021/03/16 06:30:29;;;;;;;9.73;6.60;;;;;;;0.46;100.00;100869.31;2573166;55;20113;-70
2021/03/16 06:33:21;;;;;;;9.30;5.85;;;;;;;0.51;100.00;100871.78;2578478;55;20128;-70
2021/03/16 06:36:12;;;;;;;8.82;5.80;;;;;;;0.48;100.00;100872.72;2573727;55;20107;-69
2021/03/16 06:38:59;;;;;;;8.30;6.20;;;;;;;0.48;100.00;100877.97;2572870;55;20610;-70
2021/03/16 06:41:47;;;;;;;11.48;6.57;;;;;;;0.48;100.00;100872.72;2574382;55;20640;-70
2021/03/16 06:44:35;;;;;;;9.50;6.82;;;;;;;0.52;100.00;100884.00;2579320;55;20117;-69
2021/03/16 06:47:22;;;;;;;8.93;7.03;;;;;;;0.58;100.00;100898.72;2572677;55;20143;-70
2021/03/16 06:50:10;;;;;;;10.05;7.57;;;;;;;0.55;100.00;100894.41;2573272;55;20113;-70
2021/03/16 06:52:58;;;;;;;8.45;6.72;;;;;;;0.56;100.00;100896.12;2577037;55;20142;-70
2021/03/16 06:55:54;;;;;;;10.15;7.05;;;;;;;0.62;100.00;100900.31;2578345;55;20115;-70
2021/03/16 06:58:43;;;;;;;8.27;6.20;;;;;;;0.66;100.00;100901.97;2579537;55;20148;-70
2021/03/16 07:01:37;;;;;;;9.25;6.53;;;;;;;0.68;100.00;100910.66;2572839;55;20117;-70
2021/03/16 07:04:30;;;;;;;9.40;6.60;;;;;;;0.68;100.00;100915.91;2579671;55;20666;-70
2021/03/16 07:07:23;;;;;;;9.50;6.53;;;;;;;0.66;100.00;100915.94;2573463;55;20525;-70
2021/03/16 07:10:11;;;;;;;11.55;6.93;;;;;;;0.62;100.00;100910.81;2574458;55;20531;-70
2021/03/16 07:13:01;;;;;;;7.72;6.40;;;;;;;0.66;100.00;100918.56;2573084;55;20241;-70
2021/03/16 07:15:50;;;;;;;8.73;6.45;;;;;;;0.63;100.00;100913.41;2578049;55;20519;-69
2021/03/16 07:18:40;;;;;;;9.40;6.90;;;;;;;0.67;100.00;100940.44;2572764;55;20143;-70
2021/03/16 07:21:34;;;;;;;8.25;6.32;;;;;;;0.62;100.00;100924.84;2573054;55;20105;-70
2021/03/16 07:24:30;;;;;;;9.48;5.85;;;;;;;0.66;100.00;100938.72;2573694;55;20136;-69
2021/03/16 07:27:16;;;;;;;8.30;6.10;;;;;;;0.60;100.00;100929.28;2572901;55;20128;-70
2021/03/16 07:30:10;;;;;;;11.10;7.50;;;;;;;0.58;100.00;100938.94;2573321;55;20128;-69
2021/03/16 07:33:02;;;;;;;7.28;4.97;;;;;;;0.53;100.00;100941.69;2579516;55;20128;-69
2021/03/16 07:35:53;;;;;;;8.27;5.72;;;;;;;0.53;100.00;100948.75;2574381;55;20105;-70
2021/03/16 07:38:46;;;;;;;9.25;6.12;;;;;;;0.54;100.00;100955.72;2573870;55;20133;-69
2021/03/16 07:41:34;;;;;;;9.02;6.65;;;;;;;0.51;100.00;100943.53;2578064;55;20129;-70
2021/03/16 07:44:21;;;;;;;9.38;5.90;;;;;;;0.55;100.00;100960.06;2578604;55;20182;-70
2021/03/16 07:47:09;;;;;;;8.40;5.90;;;;;;;0.55;100.00;100962.69;2573766;55;20132;-70
2021/03/16 07:50:05;;;;;;;10.30;5.85;;;;;;;0.57;100.00;100960.84;2578217;55;20136;-70
2021/03/16 07:52:53;;;;;;;6.60;5.10;;;;;;;0.59;100.00;100969.53;2577208;55;20120;-70
2021/03/16 07:55:43;;;;;;;8.35;5.30;;;;;;;0.57;100.00;100955.59;2577581;55;20117;-69
2021/03/16 07:58:30;;;;;;;8.38;6.00;;;;;;;0.55;100.00;100958.31;2573089;55;20466;-70
2021/03/16 08:01:20;;;;;;;7.30;5.20;;;;;;;0.58;100.00;100967.84;2577351;55;20146;-70
2021/03/16 08:04:10;;;;;;;9.43;5.82;;;;;;;0.57;100.00;100966.13;2571919;55;20121;-70
2021/03/16 08:07:02;;;;;;;7.30;5.45;;;;;;;0.55;100.00;100967.94;2572549;55;20500;-70
2021/03/16 08:09:52;;;;;;;7.90;5.78;;;;;;;0.53;100.00;100969.75;2572373;55;20117;-70
2021/03/16 08:12:41;;;;;;;8.25;5.93;;;;;;;0.52;100.00;100966.25;2571889;55;20117;-70
2021/03/16 08:15:40;;;;;;;8.25;5.62;;;;;;;0.57;100.00;100971.38;2571772;55;20128;-69
2021/03/16 08:18:34;;;;;;;8.98;6.45;;;;;;;0.57;100.00;100970.53;2571894;55;20114;-70
2021/03/16 08:21:21;;;;;;;10.07;6.15;;;;;;;0.68;100.00;100974.53;2572489;55;20118;-70
2021/03/16 08:24:11;;;;;;;9.32;6.53;;;;;;;0.71;100.00;100978.00;2571294;55;20237;-70
2021/03/16 08:26:59;;;;;;;8.15;5.28;;;;;;;0.73;100.00;100986.69;2572217;55;20117;-70
2021/03/16 08:29:52;;;;;;;9.45;6.93;;;;;;;0.79;100.00;100981.22;2571725;55;20143;-69
2021/03/16 08:32:40;;;;;;;12.70;7.78;;;;;;;0.81;100.00;100995.19;2571478;55;20259;-69
2021/03/16 08:35:29;;;;;;;9.32;6.30;;;;;;;0.84;100.00;100981.97;2571483;55;20109;-70
2021/03/16 08:38:25;;;;;;;7.62;5.35;;;;;;;0.88;100.00;100985.38;2572345;55;20106;-69
2021/03/16 08:41:16;;;;;;;9.60;6.03;;;;;;;0.89;100.00;100993.19;2571333;55;20132;-70
2021/03/16 08:44:05;;;;;;;11.00;7.30;;;;;;;0.87;100.00;101002.87;2571168;55;20113;-69
2021/03/16 08:46:53;;;;;;;13.35;9.80;;;;;;;0.84;100.00;100997.72;2572297;55;20158;-69
2021/03/16 08:49:45;;;;;;;7.45;5.75;;;;;;;0.88;100.00;100991.47;2572479;55;20135;-70
2021/03/16 08:52:32;;;;;;;9.20;6.93;;;;;;;0.92;100.00;101001.00;2572220;55;20527;-69
2021/03/16 08:55:26;;;;;;;13.20;7.93;;;;;;;0.92;100.00;100993.09;2571284;55;20135;-70
2021/03/16 08:58:15;;;;;;;7.62;5.18;;;;;;;0.91;100.00;100996.66;2571462;55;20121;-69
2021/03/16 09:01:04;;;;;;;7.85;5.68;;;;;;;0.95;100.00;101002.63;2571937;55;20290;-69
2021/03/16 09:03:53;;;;;;;7.43;5.20;;;;;;;0.95;100.00;101005.25;2572273;55;20113;-69
2021/03/16 09:06:40;;;;;;;6.10;4.57;;;;;;;1.05;100.00;101017.25;2570954;55;20738;-69
2021/03/16 09:09:33;;;;;;;6.90;5.30;;;;;;;1.12;100.00;101015.28;2571248;55;20129;-70
2021/03/16 09:12:35;;;;;;;7.45;5.60;;;;;;;1.19;100.00;101011.53;2571239;55;20142;-69
2021/03/16 09:15:25;;;;;;;7.07;5.57;;;;;;;1.14;100.00;101016.09;2571243;55;20608;-69
2021/03/16 09:18:13;;;;;;;7.62;5.43;;;;;;;1.20;100.00;101028.19;2571295;55;20763;-69
2021/03/16 09:21:06;;;;;;;6.43;4.65;;;;;;;1.27;100.00;101028.84;2571311;55;20134;-70
2021/03/16 09:24:01;;;;;;;8.85;4.72;;;;;;;1.28;100.00;101025.31;2571968;55;20131;-69
2021/03/16 09:27:02;;;;;;;8.45;4.85;;;;;;;1.37;100.00;101027.66;2572227;55;20131;-69
2021/03/16 09:29:52;;;;;;;8.27;5.25;;;;;;;1.30;100.00;101041.88;2571735;55;20121;-69
2021/03/16 09:32:45;;;;;;;9.60;5.22;;;;;;;1.27;100.00;101042.00;2571357;55;20114;-69
2021/03/16 09:35:39;;;;;;;8.07;6.15;;;;;;;1.24;100.00;101046.44;2571649;55;20120;-69
2021/03/16 09:38:31;;;;;;;8.25;5.80;;;;;;;1.15;100.00;101059.88;2571467;55;20113;-69
2021/03/16 09:41:01;;;;;;;9.70;5.87;;;;;;;1.11;100.00;101058.25;2571310;55;20631;-69
2021/03/16 09:43:36;;;;;;;11.32;5.43;;;;;;;1.11;100.00;101053.00;2570784;55;20596;-69
2021/03/16 09:46:09;;;;;;;10.63;5.55;;;;;;;1.08;100.00;101066.22;2572278;55;20129;-69
2021/03/16 09:48:42;;;;;;;9.10;5.30;;;;;;;1.06;100.00;101062.78;2571237;55;20592;-69
2021/03/16 09:51:21;;;;;;;8.30;6.07;;;;;;;1.17;100.00;101068.56;2571660;55;20126;-70
2021/03/16 09:53:52;;;;;;;8.73;6.03;;;;;;;1.18;100.00;101061.56;2571183;55;20640;-69
2021/03/16 09:56:30;;;;;;;7.75;5.10;;;;;;;1.23;100.00;101070.13;2571421;55;20114;-69
2021/03/16 09:59:02;;;;;;;8.38;5.40;;;;;;;1.24;100.00;101075.38;2571784;55;20125;-70
2021/03/16 10:01:42;;;;;;;7.12;4.40;;;;;;;1.32;100.00;101074.28;2571938;55;20647;-69
2021/03/16 10:04:15;;;;;;;7.43;4.90;;;;;;;1.27;100.00;101092.81;2571173;55;20128;-69
2021/03/16 10:06:44;;;;;;;4.68;4.10;;;;;;;1.29;100.00;101090.13;2571452;55;20143;-69
2021/03/16 10:09:18;;;;;;;6.90;5.03;;;;;;;1.31;100.00;101086.56;2572069;55;20139;-70
2021/03/16 10:11:47;;;;;;;6.20;4.82;;;;;;;1.37;100.00;101096.00;2571172;55;20566;-69
2021/03/16 10:14:27;;;;;;;8.13;5.30;;;;;;;1.46;100.00;101094.87;2571599;55;20126;-70
2021/03/16 10:16:59;;;;;;;7.43;4.93;;;;;;;1.38;100.00;101095.09;2572262;55;20509;-69
2021/03/16 10:19:31;;;;;;;5.50;3.72;;;;;;;1.28;100.00;101098.91;2572498;55;20114;-70
2021/03/16 10:22:12;;;;;;;6.28;4.40;;;;;;;1.27;100.00;101103.34;2571582;55;20101;-69
2021/03/16 10:24:42;;;;;;;5.07;4.10;;;;;;;1.19;100.00;101106.16;2572861;55;20109;-69
2021/03/16 10:27:11;;;;;;;5.78;4.28;;;;;;;1.14;100.00;101108.09;2572963;55;20535;-69
2021/03/16 10:29:44;;;;;;;4.72;4.07;;;;;;;1.08;100.00;101113.50;2571871;55;20144;-69
2021/03/16 10:32:15;;;;;;;7.25;5.07;;;;;;;1.02;100.00;101113.72;2571958;55;20599;-69
2021/03/16 10:34:44;;;;;;;5.45;4.22;;;;;;;1.01;100.00;101118.09;2572674;55;20114;-69
2021/03/16 10:37:26;;;;;;;7.82;3.97;;;;;;;1.09;100.00;101120.50;2572563;55;20125;-69
2021/03/16 10:39:55;;;;;;;8.48;4.53;;;;;;;1.04;100.00;101117.16;2575493;55;20133;-70
2021/03/16 10:42:28;;;;;;;6.93;4.18;;;;;;;1.04;100.00;101119.78;2571507;55;20126;-69
2021/03/16 10:44:56;;;;;;;6.20;4.32;;;;;;;1.03;100.00;101120.69;2572795;55;20607;-70
2021/03/16 10:47:25;;;;;;;7.95;4.55;;;;;;;1.00;100.00;101126.00;2571598;55;20130;-69
2021/03/16 10:49:54;;;;;;;6.40;4.70;;;;;;;0.93;100.00;101136.72;2571254;55;20113;-69
2021/03/16 10:52:29;;;;;;;4.80;4.00;;;;;;;0.93;100.00;101136.72;2572610;55;20121;-69
2021/03/16 10:54:59;;;;;;;6.87;4.93;;;;;;;0.90;100.00;101144.69;2572659;55;20113;-69
2021/03/16 10:57:29;;;;;;;5.72;4.30;;;;;;;0.90;100.00;101144.69;2571428;55;20231;-69
2021/03/16 10:59:56;;;;;;;7.03;4.90;;;;;;;0.87;100.00;101143.91;2572081;55;20139;-69
2021/03/16 11:02:36;;;;;;;7.05;4.75;;;;;;;0.88;100.00;101143.84;2571486;55;20121;-69
2021/03/16 11:05:07;;;;;;;6.25;4.57;;;;;;;0.84;100.00;101150.09;2571772;55;20519;-69
2021/03/16 11:07:43;;;;;;;6.50;4.28;;;;;;;0.86;100.00;101150.91;2572233;55;20137;-69
2021/03/16 11:10:15;;;;;;;7.20;5.00;;;;;;;0.83;100.00;101148.38;2572935;55;20121;-69
2021/03/16 11:12:46;;;;;;;8.77;4.85;;;;;;;0.78;100.00;101151.13;2571399;55;20128;-69
2021/03/16 11:15:14;;;;;;;5.78;4.65;;;;;;;0.78;100.00;101156.41;2571815;55;20572;-69
2021/03/16 11:17:45;;;;;;;6.12;4.35;;;;;;;0.78;100.00;101147.62;2572408;55;20144;-69
2021/03/16 11:20:19;;;;;;;5.72;4.45;;;;;;;0.81;100.00;101164.19;2572567;55;20674;-69
2021/03/16 11:22:49;;;;;;;7.60;5.45;;;;;;;0.84;100.00;101168.50;2571657;55;20141;-69
2021/03/16 11:25:19;;;;;;;7.20;5.05;;;;;;;0.85;100.00;101158.84;2571953;55;20125;-69
2021/03/16 11:27:48;;;;;;;7.37;4.50;;;;;;;0.91;100.00;101163.94;2571537;55;20144;-69
2021/03/16 11:30:18;;;;;;;8.02;5.18;;;;;;;0.94;100.00;101163.84;2571978;55;20124;-69
2021/03/16 11:32:48;;;;;;;9.48;5.62;;;;;;;1.00;100.00;101173.31;2571931;55;20520;-69
2021/03/16 11:35:37;;;;;;;8.02;6.12;;;;;;;0.96;100.00;101176.03;2572012;55;20118;-69
2021/03/16 11:38:27;;;;;;;10.13;7.03;;;;;;;0.97;100.00;101172.50;2572417;55;20139;-69
2021/03/16 11:41:14;;;;;;;8.80;6.65;;;;;;;0.91;100.00;101177.94;2572200;55;20132;-69
2021/03/16 11:44:01;;;;;;;10.00;7.18;;;;;;;0.90;100.00;101175.34;2571339;55;20125;-69
2021/03/16 11:47:11;;;;;;;10.57;6.80;;;;;;;1.01;100.00;101172.44;2572623;55;20693;-69
2021/03/16 11:49:58;;;;;;;7.90;5.85;;;;;;;1.06;100.00;101181.03;2572011;55;20121;-69
2021/03/16 11:52:45;;;;;;;11.43;6.47;;;;;;;1.18;100.00;101178.06;2571574;55;20611;-69
2021/03/16 11:55:34;;;;;;;8.02;5.62;;;;;;;1.18;100.00;101183.31;2571914;55;20129;-68
2021/03/16 11:58:22;;;;;;;7.68;5.20;;;;;;;1.12;100.00;101186.13;2571074;55;20129;-68
2021/03/16 12:01:13;;;;;;;8.10;5.70;;;;;;;1.13;100.00;101190.47;2572466;55;20125;-69
2021/03/16 12:04:00;;;;;;;8.85;6.00;;;;;;;1.08;100.00;101181.84;2571471;55;20118;-69
2021/03/16 12:06:46;;;;;;;9.13;5.82;;;;;;;1.04;100.00;101186.31;2571796;55;20113;-69
2021/03/16 12:09:33;;;;;;;9.18;6.05;;;;;;;1.04;100.00;101182.84;2571479;55;20126;-69
2021/03/16 12:12:23;;;;;;;9.25;6.55;;;;;;;1.11;100.00;101182.63;2571933;55;20118;-69
2021/03/16 12:15:13;;;;;;;8.88;5.80;;;;;;;1.18;100.00;101178.06;2572051;55;20134;-69
2021/03/16 12:18:00;;;;;;;7.37;5.55;;;;;;;1.22;100.00;101184.97;2571701;55;20136;-69
2021/03/16 12:20:52;;;;;;;8.50;6.18;;;;;;;1.20;99.69;101191.16;2571943;55;20125;-69
2021/03/16 12:23:41;;;;;;;10.32;6.10;;;;;;;1.09;100.00;101194.97;2571928;55;20129;-69
2021/03/16 12:26:29;;;;;;;7.47;5.22;;;;;;;1.00;100.00;101200.47;2571277;55;20128;-69
2021/03/16 12:29:16;;;;;;;9.07;6.28;;;;;;;0.94;100.00;101203.25;2572263;55;20501;-69
2021/03/16 12:32:04;;;;;;;10.52;6.53;;;;;;;0.92;100.00;101203.31;2572293;55;20121;-69
2021/03/16 12:34:52;;;;;;;8.75;5.93;;;;;;;0.92;100.00;101208.56;2571874;55;20117;-68
2021/03/16 12:37:39;;;;;;;10.38;6.90;;;;;;;0.91;100.00;101206.84;2571559;55;20135;-69
2021/03/16 12:40:28;;;;;;;9.85;6.25;;;;;;;0.85;100.00;101224.50;2572457;55;20105;-69